sensor_id;sensor_type;location;lat;lon;timestamp;pressure;altitude;pressure_sealevel;temperature;humidity
19112;BME280;9688;51.906;8.376;2023-04-29T00:01:41;100264.19;;;14.06;96.97
19112;BME280;9688;51.906;8.376;2023-04-29T00:04:27;100266.19;;;14.02;97.12
19112;BME280;9688;51.906;8.376;2023-04-29T00:07:12;100267.13;;;14.01;97.36
19112;BME280;9688;51.906;8.376;2023-04-29T00:09:59;100268.91;;;14.01;97.34
19112;BME280;9688;51.906;8.376;2023-04-29T00:12:48;100274.25;;;14.01;97.33
19112;BME280;9688;51.906;8.376;2023-04-29T00:15:36;100273.13;;;14.05;97.12
19112;BME280;9688;51.906;8.376;2023-04-29T00:18:22;100277.50;;;14.06;96.88
19112;BME280;9688;51.906;8.376;2023-04-29T00:21:07;100284.78;;;14.02;96.95
19112;BME280;9688;51.906;8.376;2023-04-29T00:23:53;100283.06;;;14.01;96.84
19112;BME280;9688;51.906;8.376;2023-04-29T00:26:38;100286.69;;;14.00;96.85
19112;BME280;9688;51.906;8.376;2023-04-29T00:29:24;100293.97;;;13.97;96.68
19112;BME280;9688;51.906;8.376;2023-04-29T00:32:12;100289.78;;;13.93;96.96
19112;BME280;9688;51.906;8.376;2023-04-29T00:34:58;100291.94;;;13.86;97.13
19112;BME280;9688;51.906;8.376;2023-04-29T00:37:43;100301.38;;;13.76;97.72
19112;BME280;9688;51.906;8.376;2023-04-29T00:40:29;100296.66;;;13.65;98.29
19112;BME280;9688;51.906;8.376;2023-04-29T00:43:15;100295.38;;;13.56;98.49
19112;BME280;9688;51.906;8.376;2023-04-29T00:46:00;100307.28;;;13.49;99.36
19112;BME280;9688;51.906;8.376;2023-04-29T00:48:47;100304.34;;;13.38;99.93
19112;BME280;9688;51.906;8.376;2023-04-29T00:51:35;100313.34;;;13.35;99.89
19112;BME280;9688;51.906;8.376;2023-04-29T00:54:21;100318.81;;;13.32;100.00
19112;BME280;9688;51.906;8.376;2023-04-29T00:57:07;100319.00;;;13.29;100.00
19112;BME280;9688;51.906;8.376;2023-04-29T00:59:52;100320.09;;;13.25;100.00
19112;BME280;9688;51.906;8.376;2023-04-29T01:02:41;100320.25;;;13.22;100.00
19112;BME280;9688;51.906;8.376;2023-04-29T01:05:30;100324.69;;;13.22;100.00
19112;BME280;9688;51.906;8.376;2023-04-29T01:08:24;100326.59;;;13.20;100.00
19112;BME280;9688;51.906;8.376;2023-04-29T01:11:15;100330.34;;;13.15;100.00
19112;BME280;9688;51.906;8.376;2023-04-29T01:14:04;100326.16;;;13.11;100.00
19112;BME280;9688;51.906;8.376;2023-04-29T01:16:51;100330.72;;;13.08;100.00
19112;BME280;9688;51.906;8.376;2023-04-29T01:19:46;100336.38;;;13.02;100.00
19112;BME280;9688;51.906;8.376;2023-04-29T01:22:33;100341.06;;;12.97;100.00
19112;BME280;9688;51.906;8.376;2023-04-29T01:25:20;100345.63;;;12.94;100.00
19112;BME280;9688;51.906;8.376;2023-04-29T01:28:13;100338.56;;;12.93;100.00
19112;BME280;9688;51.906;8.376;2023-04-29T01:31:06;100348.44;;;12.91;100.00
19112;BME280;9688;51.906;8.376;2023-04-29T01:34:00;100356.53;;;12.88;100.00
19112;BME280;9688;51.906;8.376;2023-04-29T01:37:01;100353.13;;;12.86;100.00
19112;BME280;9688;51.906;8.376;2023-04-29T01:39:56;100353.13;;;12.86;100.00
19112;BME280;9688;51.906;8.376;2023-04-29T01:42:50;100371.06;;;12.81;100.00
19112;BME280;9688;51.906;8.376;2023-04-29T01:45:40;100369.19;;;12.83;100.00
19112;BME280;9688;51.906;8.376;2023-04-29T01:48:28;100378.00;;;12.84;100.00
19112;BME280;9688;51.906;8.376;2023-04-29T01:51:14;100372.59;;;12.85;100.00
19112;BME280;9688;51.906;8.376;2023-04-29T01:54:00;100377.91;;;12.85;100.00
19112;BME280;9688;51.906;8.376;2023-04-29T01:56:45;100383.31;;;12.84;100.00
19112;BME280;9688;51.906;8.376;2023-04-29T01:59:33;100381.59;;;12.83;100.00
19112;BME280;9688;51.906;8.376;2023-04-29T02:02:19;100386.81;;;12.84;100.00
19112;BME280;9688;51.906;8.376;2023-04-29T02:05:06;100394.09;;;12.81;100.00
19112;BME280;9688;51.906;8.376;2023-04-29T02:07:52;100386.41;;;12.75;100.00
19112;BME280;9688;51.906;8.376;2023-04-29T02:10:38;100397.44;;;12.67;100.00
19112;BME280;9688;51.906;8.376;2023-04-29T02:13:24;100395.81;;;12.64;100.00
19112;BME280;9688;51.906;8.376;2023-04-29T02:16:14;100400.53;;;12.58;100.00
19112;BME280;9688;51.906;8.376;2023-04-29T02:19:00;100398.34;;;12.48;99.92
19112;BME280;9688;51.906;8.376;2023-04-29T02:21:46;100404.28;;;12.36;100.00
19112;BME280;9688;51.906;8.376;2023-04-29T02:24:31;100410.88;;;12.27;100.00
19112;BME280;9688;51.906;8.376;2023-04-29T02:27:17;100411.19;;;12.21;100.00
19112;BME280;9688;51.906;8.376;2023-04-29T02:30:05;100419.22;;;12.20;100.00
19112;BME280;9688;51.906;8.376;2023-04-29T02:32:52;100419.28;;;12.18;100.00
19112;BME280;9688;51.906;8.376;2023-04-29T02:35:38;100421.06;;;12.18;100.00
19112;BME280;9688;51.906;8.376;2023-04-29T02:38:23;100418.63;;;12.13;100.00
19112;BME280;9688;51.906;8.376;2023-04-29T02:41:09;100430.34;;;12.09;100.00
19112;BME280;9688;51.906;8.376;2023-04-29T02:43:55;100426.25;;;12.02;100.00
19112;BME280;9688;51.906;8.376;2023-04-29T02:46:42;100429.69;;;12.04;100.00
19112;BME280;9688;51.906;8.376;2023-04-29T02:49:30;100427.03;;;12.04;100.00
19112;BME280;9688;51.906;8.376;2023-04-29T02:52:15;100429.97;;;11.98;100.00
19112;BME280;9688;51.906;8.376;2023-04-29T02:55:02;100429.25;;;11.94;100.00
19112;BME280;9688;51.906;8.376;2023-04-29T02:57:49;100435.34;;;11.96;100.00
19112;BME280;9688;51.906;8.376;2023-04-29T03:00:34;100439.72;;;11.97;100.00
19112;BME280;9688;51.906;8.376;2023-04-29T03:03:19;100439.50;;;12.02;100.00
19112;BME280;9688;51.906;8.376;2023-04-29T03:06:07;100435.13;;;12.01;100.00
19112;BME280;9688;51.906;8.376;2023-04-29T03:08:53;100442.22;;;12.00;100.00
19112;BME280;9688;51.906;8.376;2023-04-29T03:11:38;100443.72;;;12.06;100.00
19112;BME280;9688;51.906;8.376;2023-04-29T03:14:24;100438.28;;;12.09;100.00
19112;BME280;9688;51.906;8.376;2023-04-29T03:17:10;100446.44;;;12.04;100.00
19112;BME280;9688;51.906;8.376;2023-04-29T03:19:56;100444.13;;;11.97;100.00
19112;BME280;9688;51.906;8.376;2023-04-29T03:22:43;100452.22;;;11.94;100.00
19112;BME280;9688;51.906;8.376;2023-04-29T03:25:29;100462.84;;;11.94;100.00
19112;BME280;9688;51.906;8.376;2023-04-29T03:28:14;100454.97;;;11.92;100.00
19112;BME280;9688;51.906;8.376;2023-04-29T03:31:00;100451.72;;;11.86;100.00
19112;BME280;9688;51.906;8.376;2023-04-29T03:33:46;100457.09;;;11.84;100.00
19112;BME280;9688;51.906;8.376;2023-04-29T03:36:31;100464.19;;;11.83;100.00
19112;BME280;9688;51.906;8.376;2023-04-29T03:39:19;100459.69;;;11.86;100.00
19112;BME280;9688;51.906;8.376;2023-04-29T03:42:05;100457.09;;;11.84;100.00
19112;BME280;9688;51.906;8.376;2023-04-29T03:44:50;100466.88;;;11.82;100.00
19112;BME280;9688;51.906;8.376;2023-04-29T03:47:35;100454.78;;;11.76;100.00
19112;BME280;9688;51.906;8.376;2023-04-29T03:50:22;100460.28;;;11.72;100.00
19112;BME280;9688;51.906;8.376;2023-04-29T03:53:07;100462.06;;;11.71;100.00
19112;BME280;9688;51.906;8.376;2023-04-29T03:55:55;100469.31;;;11.68;100.00
19112;BME280;9688;51.906;8.376;2023-04-29T03:58:40;100463.34;;;11.63;100.00
19112;BME280;9688;51.906;8.376;2023-04-29T04:01:28;100474.09;;;11.59;100.00
19112;BME280;9688;51.906;8.376;2023-04-29T04:04:13;100476.03;;;11.56;100.00
19112;BME280;9688;51.906;8.376;2023-04-29T04:06:59;100484.88;;;11.55;100.00
19112;BME280;9688;51.906;8.376;2023-04-29T04:09:45;100486.81;;;11.51;100.00
19112;BME280;9688;51.906;8.376;2023-04-29T04:12:32;100486.94;;;11.48;100.00
19112;BME280;9688;51.906;8.376;2023-04-29T04:15:17;100499.34;;;11.48;100.00
19112;BME280;9688;51.906;8.376;2023-04-29T04:18:03;100499.25;;;11.49;100.00
19112;BME280;9688;51.906;8.376;2023-04-29T04:20:49;100502.69;;;11.51;100.00
19112;BME280;9688;51.906;8.376;2023-04-29T04:23:34;100502.69;;;11.51;100.00
19112;BME280;9688;51.906;8.376;2023-04-29T04:26:21;100507.19;;;11.49;100.00
19112;BME280;9688;51.906;8.376;2023-04-29T04:29:08;100513.41;;;11.48;100.00
19112;BME280;9688;51.906;8.376;2023-04-29T04:31:54;100516.22;;;11.45;100.00
19112;BME280;9688;51.906;8.376;2023-04-29T04:34:39;100515.34;;;11.45;100.00
19112;BME280;9688;51.906;8.376;2023-04-29T04:37:25;100514.41;;;11.46;100.00
19112;BME280;9688;51.906;8.376;2023-04-29T04:40:18;100524.88;;;11.49;100.00
19112;BME280;9688;51.906;8.376;2023-04-29T04:43:06;100530.03;;;11.52;100.00
19112;BME280;9688;51.906;8.376;2023-04-29T04:45:53;100531.63;;;11.56;100.00
19112;BME280;9688;51.906;8.376;2023-04-29T04:48:38;100534.00;;;11.62;100.00
19112;BME280;9688;51.906;8.376;2023-04-29T04:51:24;100539.94;;;11.67;100.00
19112;BME280;9688;51.906;8.376;2023-04-29T04:54:12;100544.16;;;11.71;100.00
19112;BME280;9688;51.906;8.376;2023-04-29T04:56:57;100554.72;;;11.73;100.00
19112;BME280;9688;51.906;8.376;2023-04-29T04:59:43;100559.06;;;11.74;100.00
19112;BME280;9688;51.906;8.376;2023-04-29T05:02:33;100554.72;;;11.73;100.00
19112;BME280;9688;51.906;8.376;2023-04-29T05:05:19;100560.91;;;11.72;100.00
19112;BME280;9688;51.906;8.376;2023-04-29T05:08:04;100561.81;;;11.72;100.00
19112;BME280;9688;51.906;8.376;2023-04-29T05:10:50;100566.22;;;11.72;100.00
19112;BME280;9688;51.906;8.376;2023-04-29T05:13:35;100569.75;;;11.72;100.00
19112;BME280;9688;51.906;8.376;2023-04-29T05:16:21;100575.91;;;11.73;100.00
19112;BME280;9688;51.906;8.376;2023-04-29T05:19:07;100580.34;;;11.72;100.00
19112;BME280;9688;51.906;8.376;2023-04-29T05:21:53;100581.19;;;11.73;100.00
19112;BME280;9688;51.906;8.376;2023-04-29T05:24:40;100585.63;;;11.72;100.00
19112;BME280;9688;51.906;8.376;2023-04-29T05:27:29;100587.47;;;11.70;100.00
19112;BME280;9688;51.906;8.376;2023-04-29T05:30:16;100592.63;;;11.73;100.00
19112;BME280;9688;51.906;8.376;2023-04-29T05:33:02;100598.78;;;11.74;100.00
19112;BME280;9688;51.906;8.376;2023-04-29T05:35:49;100602.25;;;11.76;100.00
19112;BME280;9688;51.906;8.376;2023-04-29T05:38:35;100604.75;;;11.79;100.00
19112;BME280;9688;51.906;8.376;2023-04-29T05:41:20;100605.59;;;11.79;100.00
19112;BME280;9688;51.906;8.376;2023-04-29T05:44:09;100608.97;;;11.83;100.00
19112;BME280;9688;51.906;8.376;2023-04-29T05:46:56;100608.00;;;11.86;100.00
19112;BME280;9688;51.906;8.376;2023-04-29T05:49:42;100621.13;;;11.89;100.00
19112;BME280;9688;51.906;8.376;2023-04-29T05:52:30;100614.78;;;11.93;100.00
19112;BME280;9688;51.906;8.376;2023-04-29T05:55:16;100614.69;;;11.94;100.00
19112;BME280;9688;51.906;8.376;2023-04-29T05:58:03;100617.22;;;11.97;100.00
19112;BME280;9688;51.906;8.376;2023-04-29T06:00:50;100621.41;;;12.03;100.00
19112;BME280;9688;51.906;8.376;2023-04-29T06:03:36;100631.06;;;12.04;100.00
19112;BME280;9688;51.906;8.376;2023-04-29T06:06:21;100632.75;;;12.05;100.00
19112;BME280;9688;51.906;8.376;2023-04-29T06:09:09;100637.00;;;12.09;100.00
19112;BME280;9688;51.906;8.376;2023-04-29T06:11:55;100637.81;;;12.11;100.00
19112;BME280;9688;51.906;8.376;2023-04-29T06:14:41;100654.34;;;12.16;100.00
19112;BME280;9688;51.906;8.376;2023-04-29T06:17:27;100647.34;;;12.15;100.00
19112;BME280;9688;51.906;8.376;2023-04-29T06:20:15;100662.38;;;12.15;100.00
19112;BME280;9688;51.906;8.376;2023-04-29T06:23:01;100662.25;;;12.18;100.00
19112;BME280;9688;51.906;8.376;2023-04-29T06:25:48;100663.81;;;12.22;100.00
19112;BME280;9688;51.906;8.376;2023-04-29T06:28:33;100675.06;;;12.27;100.00
19112;BME280;9688;51.906;8.376;2023-04-29T06:31:19;100685.53;;;12.30;100.00
19112;BME280;9688;51.906;8.376;2023-04-29T06:34:06;100684.53;;;12.33;100.00
19112;BME280;9688;51.906;8.376;2023-04-29T06:36:52;100683.63;;;12.34;100.00
19112;BME280;9688;51.906;8.376;2023-04-29T06:39:37;100690.69;;;12.33;100.00
19112;BME280;9688;51.906;8.376;2023-04-29T06:42:24;100686.19;;;12.35;100.00
19112;BME280;9688;51.906;8.376;2023-04-29T06:45:10;100699.41;;;12.37;100.00
19112;BME280;9688;51.906;8.376;2023-04-29T06:47:56;100703.91;;;12.35;100.00
19112;BME280;9688;51.906;8.376;2023-04-29T06:50:48;100708.25;;;12.36;100.00
19112;BME280;9688;51.906;8.376;2023-04-29T06:53:34;100713.56;;;12.36;100.00
19112;BME280;9688;51.906;8.376;2023-04-29T06:56:19;100719.00;;;12.33;100.00
19112;BME280;9688;51.906;8.376;2023-04-29T06:59:06;100720.00;;;12.30;100.00
19112;BME280;9688;51.906;8.376;2023-04-29T07:01:53;100727.22;;;12.26;100.00
19112;BME280;9688;51.906;8.376;2023-04-29T07:04:39;100730.72;;;12.27;100.00
19112;BME280;9688;51.906;8.376;2023-04-29T07:07:24;100734.00;;;12.34;100.00
19112;BME280;9688;51.906;8.376;2023-04-29T07:10:11;100736.38;;;12.40;100.00
19112;BME280;9688;51.906;8.376;2023-04-29T07:12:59;100747.50;;;12.48;100.00
19112;BME280;9688;51.906;8.376;2023-04-29T07:15:50;100740.97;;;12.55;100.00
19112;BME280;9688;51.906;8.376;2023-04-29T07:18:35;100744.94;;;12.65;100.00
19112;BME280;9688;51.906;8.376;2023-04-29T07:21:21;100753.63;;;12.69;100.00
19112;BME280;9688;51.906;8.376;2023-04-29T07:24:07;100756.03;;;12.75;100.00
19112;BME280;9688;51.906;8.376;2023-04-29T07:26:52;100765.50;;;12.81;100.00
19112;BME280;9688;51.906;8.376;2023-04-29T07:29:38;100772.06;;;12.91;100.00
19112;BME280;9688;51.906;8.376;2023-04-29T07:32:26;100773.38;;;13.01;100.00
19112;BME280;9688;51.906;8.376;2023-04-29T07:35:11;100776.19;;;13.17;100.00
19112;BME280;9688;51.906;8.376;2023-04-29T07:37:57;100780.81;;;13.32;100.00
19112;BME280;9688;51.906;8.376;2023-04-29T07:40:43;100782.31;;;13.38;99.72
19112;BME280;9688;51.906;8.376;2023-04-29T07:43:29;100782.81;;;13.46;99.57
19112;BME280;9688;51.906;8.376;2023-04-29T07:46:18;100796.81;;;13.50;99.37
19112;BME280;9688;51.906;8.376;2023-04-29T07:49:07;100791.41;;;13.51;99.03
19112;BME280;9688;51.906;8.376;2023-04-29T07:51:53;100790.25;;;13.57;98.35
19112;BME280;9688;51.906;8.376;2023-04-29T07:54:39;100795.66;;;13.55;97.87
19112;BME280;9688;51.906;8.376;2023-04-29T07:57:25;100795.38;;;13.61;97.45
19112;BME280;9688;51.906;8.376;2023-04-29T08:00:11;100803.53;;;13.76;97.07
19112;BME280;9688;51.906;8.376;2023-04-29T08:03:00;100814.31;;;13.90;96.56
19112;BME280;9688;51.906;8.376;2023-04-29T08:05:47;100808.69;;;13.96;96.26
19112;BME280;9688;51.906;8.376;2023-04-29T08:08:37;100822.72;;;14.00;96.03
19112;BME280;9688;51.906;8.376;2023-04-29T08:11:22;100821.22;;;13.94;96.02
19112;BME280;9688;51.906;8.376;2023-04-29T08:14:09;100824.97;;;13.90;96.01
19112;BME280;9688;51.906;8.376;2023-04-29T08:16:54;100838.25;;;13.90;95.53
19112;BME280;9688;51.906;8.376;2023-04-29T08:19:41;100836.53;;;13.89;95.19
19112;BME280;9688;51.906;8.376;2023-04-29T08:22:27;100847.06;;;13.91;94.59
19112;BME280;9688;51.906;8.376;2023-04-29T08:25:15;100857.66;;;13.92;93.90
19112;BME280;9688;51.906;8.376;2023-04-29T08:28:01;100855.47;;;14.00;93.31
19112;BME280;9688;51.906;8.376;2023-04-29T08:30:46;100862.06;;;14.11;93.35
19112;BME280;9688;51.906;8.376;2023-04-29T08:33:32;100867.38;;;14.11;92.46
19112;BME280;9688;51.906;8.376;2023-04-29T08:36:18;100866.44;;;14.12;92.07
19112;BME280;9688;51.906;8.376;2023-04-29T08:39:05;100867.63;;;14.23;91.50
19112;BME280;9688;51.906;8.376;2023-04-29T08:41:51;100871.72;;;14.31;91.06
19112;BME280;9688;51.906;8.376;2023-04-29T08:44:40;100864.28;;;14.37;90.36
19112;BME280;9688;51.906;8.376;2023-04-29T08:47:29;100876.78;;;14.35;89.59
19112;BME280;9688;51.906;8.376;2023-04-29T08:50:16;100877.72;;;14.34;89.71
19112;BME280;9688;51.906;8.376;2023-04-29T08:53:02;100887.84;;;14.45;89.40
19112;BME280;9688;51.906;8.376;2023-04-29T08:56:08;100889.13;;;14.55;88.77
19112;BME280;9688;51.906;8.376;2023-04-29T08:58:56;100882.63;;;14.61;88.30
19112;BME280;9688;51.906;8.376;2023-04-29T09:01:43;100879.19;;;14.76;87.76
19112;BME280;9688;51.906;8.376;2023-04-29T09:04:46;100892.56;;;14.92;86.74
19112;BME280;9688;51.906;8.376;2023-04-29T09:07:32;100891.94;;;14.87;86.62
19112;BME280;9688;51.906;8.376;2023-04-29T09:10:20;100888.88;;;14.94;86.56
19112;BME280;9688;51.906;8.376;2023-04-29T09:13:11;100891.66;;;15.09;85.81
19112;BME280;9688;51.906;8.376;2023-04-29T09:16:13;100891.00;;;15.21;85.01
19112;BME280;9688;51.906;8.376;2023-04-29T09:19:01;100895.81;;;15.14;84.67
19112;BME280;9688;51.906;8.376;2023-04-29T09:21:53;100897.06;;;15.07;84.04
19112;BME280;9688;51.906;8.376;2023-04-29T09:24:40;100892.16;;;15.00;84.11
19112;BME280;9688;51.906;8.376;2023-04-29T09:27:27;100889.63;;;15.14;83.91
19112;BME280;9688;51.906;8.376;2023-04-29T09:30:18;100895.88;;;15.46;82.88
19112;BME280;9688;51.906;8.376;2023-04-29T09:33:07;100892.00;;;15.69;82.05
19112;BME280;9688;51.906;8.376;2023-04-29T09:35:54;100900.25;;;15.80;81.44
19112;BME280;9688;51.906;8.376;2023-04-29T09:43:22;100908.81;;;16.17;79.57
19112;BME280;9688;51.906;8.376;2023-04-29T11:22:57;100966.75;;;15.99;72.66
19112;BME280;9688;51.906;8.376;2023-04-29T11:25:45;100966.22;;;16.24;72.08
19112;BME280;9688;51.906;8.376;2023-04-29T11:28:34;100968.19;;;16.37;71.72
19112;BME280;9688;51.906;8.376;2023-04-29T11:31:30;100966.97;;;16.42;70.75
19112;BME280;9688;51.906;8.376;2023-04-29T11:34:24;100963.03;;;16.34;71.33
19112;BME280;9688;51.906;8.376;2023-04-29T11:37:19;100973.34;;;16.56;69.96
19112;BME280;9688;51.906;8.376;2023-04-29T11:40:09;100969.75;;;16.87;69.18
19112;BME280;9688;51.906;8.376;2023-04-29T11:42:56;100973.66;;;17.11;67.80
19112;BME280;9688;51.906;8.376;2023-04-29T11:45:44;100977.72;;;17.03;68.08
19112;BME280;9688;51.906;8.376;2023-04-29T11:48:33;100985.47;;;17.07;67.90
19112;BME280;9688;51.906;8.376;2023-04-29T11:51:18;100985.81;;;17.01;67.98
19112;BME280;9688;51.906;8.376;2023-04-29T11:54:06;100985.06;;;16.99;68.34
19112;BME280;9688;51.906;8.376;2023-04-29T11:56:56;101001.00;;;17.01;67.73
19112;BME280;9688;51.906;8.376;2023-04-29T11:59:52;100989.59;;;16.83;67.85
19112;BME280;9688;51.906;8.376;2023-04-29T12:02:57;100993.44;;;16.93;67.20
19112;BME280;9688;51.906;8.376;2023-04-29T12:05:45;100994.31;;;16.93;67.64
19112;BME280;9688;51.906;8.376;2023-04-29T12:08:32;100994.31;;;16.93;67.14
19112;BME280;9688;51.906;8.376;2023-04-29T12:11:21;100999.25;;;16.85;67.22
19112;BME280;9688;51.906;8.376;2023-04-29T12:14:09;100997.69;;;16.65;68.01
19112;BME280;9688;51.906;8.376;2023-04-29T12:16:57;100991.59;;;16.63;67.33
19112;BME280;9688;51.906;8.376;2023-04-29T12:19:43;100993.22;;;16.66;67.36
19112;BME280;9688;51.906;8.376;2023-04-29T12:22:30;100997.31;;;16.87;67.02
19112;BME280;9688;51.906;8.376;2023-04-29T12:25:37;100995.06;;;16.95;66.71
19112;BME280;9688;51.906;8.376;2023-04-29T12:28:33;100991.75;;;17.06;66.42
19112;BME280;9688;51.906;8.376;2023-04-29T12:31:25;100995.56;;;17.32;66.17
19112;BME280;9688;51.906;8.376;2023-04-29T12:34:23;100997.19;;;17.35;66.11
19112;BME280;9688;51.906;8.376;2023-04-29T12:37:10;100997.44;;;17.30;65.88
19112;BME280;9688;51.906;8.376;2023-04-29T12:39:59;100992.47;;;17.24;65.26
19112;BME280;9688;51.906;8.376;2023-04-29T12:42:45;100999.25;;;17.15;65.48
19112;BME280;9688;51.906;8.376;2023-04-29T12:45:33;100995.47;;;17.04;65.88
19112;BME280;9688;51.906;8.376;2023-04-29T12:48:19;101000.47;;;16.80;66.05
19112;BME280;9688;51.906;8.376;2023-04-29T12:51:07;100995.53;;;16.56;66.20
19112;BME280;9688;51.906;8.376;2023-04-29T12:53:53;100999.25;;;16.38;67.10
19112;BME280;9688;51.906;8.376;2023-04-29T12:56:41;101007.00;;;16.26;67.18
19112;BME280;9688;51.906;8.376;2023-04-29T12:59:27;100999.53;;;16.17;67.78
19112;BME280;9688;51.906;8.376;2023-04-29T13:02:17;101009.25;;;16.18;67.66
19112;BME280;9688;51.906;8.376;2023-04-29T13:05:11;101010.53;;;16.11;67.55
19112;BME280;9688;51.906;8.376;2023-04-29T13:08:01;101011.56;;;16.09;68.11
19112;BME280;9688;51.906;8.376;2023-04-29T13:10:53;101018.31;;;16.16;68.07
19112;BME280;9688;51.906;8.376;2023-04-29T13:13:39;101016.56;;;16.31;67.46
19112;BME280;9688;51.906;8.376;2023-04-29T13:16:25;101012.53;;;16.39;67.25
19112;BME280;9688;51.906;8.376;2023-04-29T13:19:13;101018.53;;;16.43;66.90
19112;BME280;9688;51.906;8.376;2023-04-29T13:22:02;101013.13;;;16.60;66.99
19112;BME280;9688;51.906;8.376;2023-04-29T13:24:52;101013.03;;;16.78;66.06
19112;BME280;9688;51.906;8.376;2023-04-29T13:27:39;101019.47;;;16.89;66.11
19112;BME280;9688;51.906;8.376;2023-04-29T13:30:25;101015.09;;;16.88;66.24
19112;BME280;9688;51.906;8.376;2023-04-29T13:33:11;101018.59;;;16.89;65.74
19112;BME280;9688;51.906;8.376;2023-04-29T13:36:00;101016.50;;;16.80;65.94
19112;BME280;9688;51.906;8.376;2023-04-29T13:38:50;101029.09;;;16.76;66.06
19112;BME280;9688;51.906;8.376;2023-04-29T13:41:38;101018.78;;;16.70;65.27
19112;BME280;9688;51.906;8.376;2023-04-29T13:44:41;101019.81;;;16.67;65.65
19112;BME280;9688;51.906;8.376;2023-04-29T13:47:28;101021.56;;;16.68;65.41
19112;BME280;9688;51.906;8.376;2023-04-29T13:50:13;101022.31;;;16.70;65.13
19112;BME280;9688;51.906;8.376;2023-04-29T13:53:03;101019.81;;;16.67;65.11
19112;BME280;9688;51.906;8.376;2023-04-29T13:55:50;101018.53;;;16.75;65.66
19112;BME280;9688;51.906;8.376;2023-04-29T13:58:36;101022.75;;;16.79;65.44
19112;BME280;9688;51.906;8.376;2023-04-29T14:01:27;101024.97;;;16.86;65.34
19112;BME280;9688;51.906;8.376;2023-04-29T14:04:13;101026.63;;;16.89;65.19
19112;BME280;9688;51.906;8.376;2023-04-29T14:07:02;101029.66;;;16.83;65.28
19112;BME280;9688;51.906;8.376;2023-04-29T14:10:06;101029.72;;;16.81;65.07
19112;BME280;9688;51.906;8.376;2023-04-29T14:12:54;101041.00;;;16.70;64.55
19112;BME280;9688;51.906;8.376;2023-04-29T14:15:40;101028.44;;;16.57;64.36
19112;BME280;9688;51.906;8.376;2023-04-29T14:18:38;101031.56;;;16.49;64.30
19112;BME280;9688;51.906;8.376;2023-04-29T14:21:30;101035.50;;;16.58;63.28
19112;BME280;9688;51.906;8.376;2023-04-29T14:24:17;101037.56;;;16.68;63.77
19112;BME280;9688;51.906;8.376;2023-04-29T14:27:06;101038.59;;;16.82;63.32
19112;BME280;9688;51.906;8.376;2023-04-29T14:29:53;101043.59;;;16.88;62.31
19112;BME280;9688;51.906;8.376;2023-04-29T14:32:39;101047.13;;;16.88;63.08
19112;BME280;9688;51.906;8.376;2023-04-29T14:35:25;101047.03;;;16.90;62.33
19112;BME280;9688;51.906;8.376;2023-04-29T14:38:11;101045.75;;;16.81;63.04
19112;BME280;9688;51.906;8.376;2023-04-29T14:40:58;101048.81;;;16.73;63.16
19112;BME280;9688;51.906;8.376;2023-04-29T14:43:45;101051.28;;;16.78;62.79
19112;BME280;9688;51.906;8.376;2023-04-29T14:46:31;101047.78;;;16.76;63.21
19112;BME280;9688;51.906;8.376;2023-04-29T14:49:19;101060.75;;;16.84;63.46
19112;BME280;9688;51.906;8.376;2023-04-29T14:52:04;101059.88;;;16.99;62.75
19112;BME280;9688;51.906;8.376;2023-04-29T14:54:51;101066.09;;;17.14;62.56
19112;BME280;9688;51.906;8.376;2023-04-29T14:57:37;101062.63;;;17.28;62.24
19112;BME280;9688;51.906;8.376;2023-04-29T15:00:24;101059.97;;;17.42;62.60
19112;BME280;9688;51.906;8.376;2023-04-29T15:03:12;101075.84;;;17.59;61.93
19112;BME280;9688;51.906;8.376;2023-04-29T15:05:59;101068.16;;;17.69;61.96
19112;BME280;9688;51.906;8.376;2023-04-29T15:08:46;101072.25;;;17.75;61.63
19112;BME280;9688;51.906;8.376;2023-04-29T15:11:36;101076.50;;;17.79;61.73
19112;BME280;9688;51.906;8.376;2023-04-29T15:14:23;101069.63;;;17.89;61.41
19112;BME280;9688;51.906;8.376;2023-04-29T15:17:12;101068.97;;;18.00;61.08
19112;BME280;9688;51.906;8.376;2023-04-29T15:20:00;101058.91;;;18.03;60.16
19112;BME280;9688;51.906;8.376;2023-04-29T15:22:57;101065.69;;;18.09;59.93
19112;BME280;9688;51.906;8.376;2023-04-29T15:25:43;101078.41;;;18.05;59.20
19112;BME280;9688;51.906;8.376;2023-04-29T15:28:30;101078.31;;;17.78;59.93
19112;BME280;9688;51.906;8.376;2023-04-29T15:31:16;101087.88;;;17.52;60.42
19112;BME280;9688;51.906;8.376;2023-04-29T15:34:03;101078.84;;;17.25;60.21
19112;BME280;9688;51.906;8.376;2023-04-29T15:36:52;101082.13;;;17.14;59.69
19112;BME280;9688;51.906;8.376;2023-04-29T15:39:53;101078.63;;;17.13;59.67
19112;BME280;9688;51.906;8.376;2023-04-29T15:42:41;101084.63;;;17.17;59.06
19112;BME280;9688;51.906;8.376;2023-04-29T15:45:31;101090.56;;;17.22;58.94
19112;BME280;9688;51.906;8.376;2023-04-29T15:48:18;101091.06;;;17.29;58.89
19112;BME280;9688;51.906;8.376;2023-04-29T15:51:05;101085.38;;;17.35;59.29
19112;BME280;9688;51.906;8.376;2023-04-29T15:53:55;101094.66;;;17.44;59.22
19112;BME280;9688;51.906;8.376;2023-04-29T15:56:44;101095.50;;;17.44;58.88
19112;BME280;9688;51.906;8.376;2023-04-29T15:59:30;101085.78;;;17.43;59.42
19112;BME280;9688;51.906;8.376;2023-04-29T16:02:16;101093.22;;;17.38;59.41
19112;BME280;9688;51.906;8.376;2023-04-29T16:05:04;101088.19;;;17.32;58.88
19112;BME280;9688;51.906;8.376;2023-04-29T16:07:51;101088.56;;;17.26;59.42
19112;BME280;9688;51.906;8.376;2023-04-29T16:10:37;101093.50;;;17.17;59.32
19112;BME280;9688;51.906;8.376;2023-04-29T16:13:23;101098.09;;;17.15;59.85
19112;BME280;9688;51.906;8.376;2023-04-29T16:16:09;101095.56;;;17.12;59.53
19112;BME280;9688;51.906;8.376;2023-04-29T16:18:56;101101.03;;;17.11;59.16
19112;BME280;9688;51.906;8.376;2023-04-29T16:21:42;101097.69;;;17.07;59.79
19112;BME280;9688;51.906;8.376;2023-04-29T16:24:30;101099.56;;;17.05;59.30